Chadstone Weather > Observations for 16/03/21

Select Day:



Observations
Time Temp Hum DP Wind Gust Dir Rain >9am Press
C % C kph kph mm hPa
00:00 16.8 88 14.8 2.4 7.2 SSE 0.0 1008.9
00:10 16.6 88 14.6 2.7 7.2 SSE 0.0 1008.5
00:20 16.5 90 14.9 2.8 7.2 SSE 0.0 1009.2
00:30 16.5 91 15.0 3.1 8.6 E 0.0 1008.6
00:40 16.5 92 15.2 3.0 6.1 SE 0.0 1008.7
00:50 16.6 92 15.3 1.4 5.0 SE 0.0 1008.9
01:00 16.5 92 15.2 2.0 9.7 SE 0.0 1008.7
01:10 16.4 92 15.1 3.0 9.7 S 0.0 1009.1
01:20 16.5 91 15.0 2.0 6.1 SE 0.0 1008.5
01:30 16.5 90 14.9 2.0 7.2 SE 0.0 1008.5
01:40 16.6 89 14.8 0.0 2.5 SE 0.0 1009.1
01:50 16.6 88 14.6 0.7 3.6 SE 0.0 1008.8
02:00 16.6 88 14.6 0.6 5.0 SE 0.0 1008.6
02:10 16.5 87 14.3 1.5 7.2 SSE 0.0 1008.5
02:20 16.5 86 14.2 2.6 7.2 SE 0.0 1007.8
02:30 16.5 86 14.2 1.8 8.6 S 0.0 1008.4
02:40 16.5 86 14.2 3.7 11.2 SE 0.0 1008.3
02:50 16.5 86 14.2 4.0 18.4 SSE 0.0 1008.2
03:00 16.2 87 14.0 7.8 15.8 S 0.0 1008.3
03:10 16.1 88 14.1 6.1 17.3 SE 0.0 1008.3
03:20 16.0 88 14.0 2.0 7.2 SSW 0.0 1008.1
03:30 16.0 88 14.0 5.9 15.8 SE 0.0 1008.0
03:40 16.0 88 14.0 5.6 13.3 SSE 0.0 1008.1
03:50 15.9 89 14.1 6.8 17.3 SSE 0.0 1008.0
04:00 15.9 89 14.1 7.7 15.8 SE 0.0 1008.0
04:10 15.8 89 14.0 4.7 11.2 ESE 0.0 1008.0
04:20 15.8 89 14.0 4.4 12.2 SSE 0.0 1008.0
04:30 15.8 89 14.0 5.4 13.3 SE 0.0 1008.0
04:40 15.8 88 13.8 6.1 12.2 ESE 0.0 1007.9
04:50 15.8 87 13.6 5.8 12.2 SE 0.0 1008.0
05:00 15.8 87 13.6 6.0 13.3 SE 0.0 1008.0
05:10 15.8 86 13.5 4.4 9.7 SE 0.0 1007.9
05:20 15.9 85 13.4 3.3 11.2 SSE 0.0 1008.0
05:30 15.8 85 13.3 3.4 12.2 SSE 0.0 1008.0
05:40 15.8 84 13.1 3.3 9.7 S 0.0 1008.0
05:50 15.8 84 13.1 2.8 12.2 SSE 0.0 1008.0
06:00 15.7 84 13.0 5.1 12.2 S 0.0 1008.2
06:10 15.7 83 12.8 5.2 12.2 S 0.0 1008.3
06:20 15.7 83 12.8 4.2 14.8 S 0.0 1008.5
06:30 15.6 83 12.7 2.3 11.2 SSE 0.0 1008.6
06:40 15.6 83 12.7 1.7 7.2 S 0.0 1008.8
06:50 15.6 83 12.7 0.8 7.2 SSE 0.0 1009.0
07:00 15.7 83 12.8 4.1 11.2 SSE 0.0 1009.1
07:10 15.7 83 12.8 3.8 12.2 SSE 0.0 1009.1
07:20 15.7 83 12.8 2.7 9.7 SSE 0.0 1009.2
07:30 15.7 83 12.8 3.9 9.7 S 0.0 1009.4
07:40 15.7 83 12.8 1.8 7.2 S 0.0 1009.6
07:50 15.8 83 12.9 3.5 8.6 ESE 0.0 1009.7
08:00 15.8 83 12.9 1.2 6.1 SE 0.0 1010.0
08:10 15.9 83 13.0 1.4 5.0 SE 0.0 1010.1
08:20 16.0 81 12.7 0.8 6.1 SSE 0.0 1010.3
08:30 16.1 81 12.8 1.9 9.7 SSE 0.0 1010.3
08:40 16.3 80 12.9 4.1 11.2 SE 0.0 1010.4
08:50 16.7 78 12.9 4.9 12.2 ESE 0.0 1010.5
09:00 17.0 75 12.5 3.1 13.3 SE 0.0 1010.6
09:10 17.2 74 12.5 5.0 13.3 SE 0.0 1010.9
09:20 17.0 73 12.1 4.1 11.2 SE 0.0 1010.8
09:30 17.2 73 12.3 4.7 13.3 SE 0.0 1010.9
09:40 17.2 72 12.1 4.8 11.2 SE 0.0 1011.1
09:50 17.5 72 12.4 3.2 9.7 SE 0.0 1011.0
10:00 17.4 71 12.1 3.7 13.3 SE 0.0 1011.0
10:10 17.4 72 12.3 3.5 9.7 E 0.0 1011.0
10:20 17.6 72 12.5 3.1 8.6 SE 0.0 1011.0
10:30 18.0 71 12.7 2.3 8.6 SE 0.0 1011.0
10:40 18.2 71 12.9 3.8 9.7 ESE 0.0 1011.0
10:50 18.3 71 13.0 3.1 9.7 NNE 0.0 1010.9
11:00 18.7 71 13.3 3.5 11.2 NE 0.0 1010.9
11:10 19.3 69 13.5 4.2 11.2 E 0.0 1010.8
11:20 19.3 68 13.3 5.7 12.2 ENE 0.0 1010.6
11:30 19.7 68 13.6 4.2 9.7 ENE 0.0 1010.7
11:40 19.6 67 13.3 3.0 9.7 SE 0.0 1010.6
11:50 19.4 67 13.1 4.7 11.2 ESE 0.0 1010.5
12:00 19.3 68 13.3 1.8 9.7 SSE 0.0 1010.4
12:10 19.4 67 13.1 3.7 9.7 SSE 0.0 1010.3
12:20 19.9 67 13.6 0.0 2.5 SE 0.0 1010.1
12:30 19.8 67 13.5 2.9 12.2 SSE 0.0 1009.9
12:40 20.4 65 13.6 4.1 12.2 S 0.0 1009.7
12:50 20.7 64 13.7 5.3 14.8 SSE 0.0 1009.6
13:00 21.1 62 13.5 3.3 14.8 SE 0.0 1009.5
13:10 21.4 62 13.8 3.2 15.8 SE 0.0 1009.3
13:20 21.6 62 14.0 4.8 13.3 SE 0.0 1009.1
13:30 21.8 60 13.7 4.2 12.2 E 0.0 1008.9
13:40 21.8 61 14.0 6.1 13.3 ESE 0.0 1008.8
13:50 22.3 60 14.2 4.6 14.8 SE 0.0 1008.6
14:00 21.9 60 13.8 7.0 18.4 SE 0.0 1008.5
14:10 21.9 62 14.3 3.6 13.3 S 0.0 1008.6
14:20 21.8 62 14.2 8.8 19.4 SSE 0.0 1008.4
14:30 21.8 62 14.2 5.4 14.8 SSE 0.0 1008.2
14:40 21.8 62 14.2 5.0 17.3 SSW 0.0 1008.1
14:50 22.4 60 14.3 5.0 17.3 E 0.0 1008.0
15:00 22.4 59 14.0 5.8 15.8 SE 0.0 1007.9
15:10 22.4 58 13.7 6.4 15.8 SSE 0.0 1007.8
15:20 22.6 60 14.5 6.5 14.8 SE 0.0 1007.7
15:30 22.9 61 15.0 4.2 17.3 SSE 0.0 1007.6
15:40 22.3 61 14.4 5.6 19.4 WSW 0.0 1007.4
15:50 22.2 62 14.6 4.9 18.4 S 0.0 1007.4
16:00 22.0 62 14.4 4.5 15.8 S 0.0 1007.3
16:10 22.1 62 14.5 5.5 17.3 SSW 0.0 1007.2
16:20 22.0 62 14.4 4.3 15.8 SSW 0.0 1007.1
16:30 22.0 62 14.4 2.0 12.2 SSW 0.0 1006.8
16:40 22.2 63 14.8 3.7 11.2 SSE 0.0 1006.8
16:50 22.1 63 14.7 4.2 15.8 S 0.0 1006.6
17:00 22.0 63 14.6 2.7 15.8 SW 0.0 1006.7
17:10 22.2 63 14.8 3.1 13.3 S 0.0 1006.6
17:20 22.2 64 15.1 2.5 13.3 SSW 0.0 1006.6
17:30 22.2 64 15.1 4.4 15.8 S 0.0 1006.4
17:40 22.3 64 15.2 2.8 11.2 SW 0.0 1006.4
17:50 22.2 65 15.3 2.7 11.2 SSE 0.0 1006.3
18:00 22.2 65 15.3 1.4 7.2 SW 0.0 1006.4
18:10 22.3 66 15.7 3.0 15.8 S 0.0 1006.3
18:20 22.4 66 15.8 2.5 11.2 SSE 0.0 1006.3
18:30 22.3 66 15.7 1.3 9.7 S 0.0 1006.4
18:40 22.3 65 15.4 4.1 14.8 S 0.0 1006.4
18:50 22.3 65 15.4 6.6 14.8 SSE 0.0 1006.5
19:00 22.0 65 15.1 3.9 12.2 SSE 0.0 1006.5
19:10 21.8 67 15.4 4.1 9.7 SE 0.0 1006.7
19:20 21.7 67 15.3 4.8 14.8 S 0.0 1006.6
19:30 21.5 68 15.4 3.5 14.8 SSE 0.0 1006.5
19:40 21.3 68 15.2 3.5 9.7 SE 0.0 1006.5
19:50 21.2 69 15.3 3.2 12.2 S 0.0 1006.4
20:00 21.1 70 15.4 1.2 9.7 S 0.0 1006.5
20:10 20.8 71 15.4 0.8 6.1 SSW 0.0 1006.5
20:20 20.6 73 15.6 0.2 5.0 S 0.0 1006.6
20:30 20.5 74 15.7 0.0 1.1 WSW 0.0 1006.5
20:40 20.2 75 15.6 0.1 5.0 SW 0.0 1006.5
20:50 20.1 76 15.8 1.7 9.7 SSW 0.0 1006.7
21:00 20.1 76 15.8 2.7 7.2 SE 0.0 1006.7
21:10 20.1 75 15.5 5.7 12.2 SE 0.0 1006.7
21:20 20.2 74 15.4 5.3 15.8 SE 0.0 1006.9
21:30 20.1 74 15.3 8.3 15.8 SE 0.0 1007.0
21:40 19.9 75 15.4 7.0 12.2 SSE 0.0 1007.1
21:50 19.8 75 15.3 7.0 14.8 SE 0.0 1007.1
22:00 19.6 75 15.1 9.0 19.4 SSE 0.0 1008.6
22:10 19.5 75 15.0 7.1 17.3 SE 0.0 1008.3
22:20 19.3 75 14.8 6.0 13.3 SSE 0.0 1008.1
22:30 19.1 76 14.8 7.7 14.8 SE 0.0 1007.4
22:40 19.0 76 14.7 4.3 11.2 SE 0.0 1007.4
22:50 18.9 78 15.0 4.7 11.2 ESE 0.0 1007.7
23:00 18.8 78 14.9 7.2 14.8 SE 0.0 1007.6
23:10 18.7 79 15.0 3.8 9.7 SE 0.0 1007.1
23:20 18.5 79 14.8 3.1 8.6 SE 0.0 1007.2
23:30 18.5 79 14.8 4.3 9.7 ESE 0.0 1007.4
23:40 18.3 80 14.8 1.0 5.0 E 0.0 1007.4
23:50 18.2 80 14.7 1.8 6.1 E 0.0 1007.2